createdAt,value
2018-02-14T00:02:07.151Z,-1.12
2018-02-14T00:04:35.563Z,-1.19
2018-02-14T00:07:04.093Z,-1.18
2018-02-14T00:09:32.493Z,-1.12
2018-02-14T00:12:00.885Z,-1.13
2018-02-14T00:14:29.291Z,-1.15
2018-02-14T00:16:57.703Z,-1.07
2018-02-14T00:19:26.870Z,-0.99
2018-02-14T00:21:56.114Z,-1.11
2018-02-14T00:24:25.251Z,-1.12
2018-02-14T00:26:53.702Z,-1.29
2018-02-14T00:29:22.086Z,-1.16
2018-02-14T00:31:50.525Z,-1.18
2018-02-14T00:34:18.927Z,-1.28
2018-02-14T00:36:48.110Z,-1.06
2018-02-14T00:39:16.507Z,-1.06
2018-02-14T00:41:45.656Z,-1.07
2018-02-14T00:44:14.039Z,-1.03
2018-02-14T00:46:42.486Z,-1.04
2018-02-14T00:49:10.880Z,-1.04
2018-02-14T00:51:39.273Z,-0.98
2018-02-14T00:54:07.669Z,-0.99
2018-02-14T00:56:36.092Z,-1.08
2018-02-14T00:59:04.498Z,-1.12
2018-02-14T01:01:32.895Z,-1.17
2018-02-14T01:04:01.288Z,-1.32
2018-02-14T01:06:29.687Z,-1.28
2018-02-14T01:08:58.132Z,-1.33
2018-02-14T01:11:26.527Z,-1.37
2018-02-14T01:13:54.913Z,-1.40
2018-02-14T01:16:23.306Z,-1.31
2018-02-14T01:18:51.732Z,-1.18
2018-02-14T01:21:21.048Z,-1.25
2018-02-14T01:23:49.529Z,-1.27
2018-02-14T01:26:17.927Z,-1.27
2018-02-14T01:28:46.346Z,-1.24
2018-02-14T01:31:15.503Z,-1.37
2018-02-14T01:33:43.987Z,-1.49
2018-02-14T01:36:12.530Z,-1.40
2018-02-14T01:38:41.026Z,-1.37
2018-02-14T01:41:09.416Z,-1.36
2018-02-14T01:43:37.815Z,-1.36
2018-02-14T01:46:06.241Z,-1.46
2018-02-14T01:48:35.410Z,-1.64
2018-02-14T01:51:03.815Z,-1.59
2018-02-14T01:53:33.054Z,-1.76
2018-02-14T01:56:01.481Z,-1.82
2018-02-14T01:58:29.871Z,-1.77
2018-02-14T02:00:59.023Z,-1.89
2018-02-14T02:03:27.440Z,-1.89
2018-02-14T02:05:55.855Z,-1.82
2018-02-14T02:08:24.407Z,-1.72
2018-02-14T02:10:52.798Z,-1.72
2018-02-14T02:13:22.027Z,-1.63
2018-02-14T02:15:50.410Z,-1.63
2018-02-14T02:18:18.806Z,-1.47
2018-02-14T02:20:47.248Z,-1.40
2018-02-14T02:23:15.653Z,-1.36
2018-02-14T02:25:44.059Z,-1.27
2018-02-14T02:28:12.477Z,-1.31
2018-02-14T02:30:41.671Z,-1.33
2018-02-14T02:33:10.073Z,-1.41
2018-02-14T02:35:38.507Z,-1.40
2018-02-14T02:38:06.916Z,-1.37
2018-02-14T02:40:36.067Z,-1.35
2018-02-14T02:43:04.475Z,-1.26
2018-02-14T02:45:33.628Z,-1.16
2018-02-14T02:48:02.030Z,-1.15
2018-02-14T02:50:31.043Z,-1.21
2018-02-14T02:52:59.466Z,-1.27
2018-02-14T02:55:27.890Z,-1.39
2018-02-14T02:57:56.395Z,-1.39
2018-02-14T03:00:24.769Z,-1.36
2018-02-14T03:02:53.156Z,-1.30
2018-02-14T03:05:22.312Z,-1.29
2018-02-14T03:07:50.708Z,-1.39
2018-02-14T03:10:19.099Z,-1.35
2018-02-14T03:12:47.489Z,-1.39
2018-02-14T03:15:16.048Z,-1.39
2018-02-14T03:17:44.467Z,-1.38
2018-02-14T03:20:13.633Z,-1.39
2018-02-14T03:22:42.045Z,-1.41
2018-02-14T03:25:11.227Z,-1.40
2018-02-14T03:27:39.604Z,-1.34
2018-02-14T03:30:08.111Z,-1.32
2018-02-14T03:32:37.291Z,-1.33
2018-02-14T03:35:05.702Z,-1.37
2018-02-14T03:37:34.162Z,-1.55
2018-02-14T03:40:03.354Z,-1.60
2018-02-14T03:42:31.879Z,-1.61
2018-02-14T03:45:00.271Z,-1.72
2018-02-14T03:47:28.691Z,-1.83
2018-02-14T03:49:57.074Z,-2.03
2018-02-14T03:52:25.491Z,-2.19
2018-02-14T03:54:54.224Z,-2.24
2018-02-14T03:57:22.621Z,-2.36
2018-02-14T03:59:50.994Z,-2.33
2018-02-14T04:02:19.374Z,-2.18
2018-02-14T04:04:47.771Z,-2.11
2018-02-14T04:07:16.187Z,-2.03
2018-02-14T04:09:44.620Z,-1.97
2018-02-14T04:12:13.023Z,-1.97
2018-02-14T04:14:41.537Z,-1.90
2018-02-14T04:17:09.927Z,-1.98
2018-02-14T04:19:38.527Z,-2.02
2018-02-14T04:22:06.943Z,-2.11
2018-02-14T04:24:35.344Z,-2.04
2018-02-14T04:27:03.874Z,-2.01
2018-02-14T04:29:32.265Z,-1.88
2018-02-14T04:32:00.689Z,-2.02
2018-02-14T04:34:29.107Z,-2.04
2018-02-14T04:36:57.485Z,-2.21
2018-02-14T04:39:25.899Z,-2.17
2018-02-14T04:41:55.059Z,-2.09
2018-02-14T04:44:23.550Z,-2.12
2018-02-14T04:46:51.939Z,-2.27
2018-02-14T04:49:20.326Z,-2.33
2018-02-14T04:51:48.751Z,-2.39
2018-02-14T04:54:17.147Z,-2.53
2018-02-14T04:56:46.322Z,-2.48
2018-02-14T04:59:14.726Z,-2.60
2018-02-14T05:01:43.969Z,-2.62
2018-02-14T05:04:12.624Z,-2.70
2018-02-14T05:06:41.816Z,-2.72
2018-02-14T05:09:10.207Z,-2.75
2018-02-14T05:11:39.363Z,-2.94
2018-02-14T05:14:07.933Z,-2.93
2018-02-14T05:16:36.613Z,-2.80
2018-02-14T05:19:04.995Z,-2.70
2018-02-14T05:21:33.486Z,-2.53
2018-02-14T05:24:01.898Z,-2.45
2018-02-14T05:26:31.038Z,-2.53
2018-02-14T05:28:59.421Z,-2.48
2018-02-14T05:31:27.819Z,-2.39
2018-02-14T05:33:56.294Z,-2.34
2018-02-14T05:36:24.696Z,-2.32
2018-02-14T05:38:53.092Z,-2.30
2018-02-14T05:41:22.276Z,-2.28
2018-02-14T05:43:51.596Z,-2.30
2018-02-14T05:46:22.274Z,-2.38
2018-02-14T05:48:50.696Z,-2.39
2018-02-14T05:51:19.109Z,-2.38
2018-02-14T05:53:47.489Z,-2.36
2018-02-14T05:56:15.917Z,-2.62
2018-02-14T05:58:44.351Z,-2.59
2018-02-14T06:01:12.755Z,-2.66
2018-02-14T06:03:41.187Z,-2.67
2018-02-14T06:06:09.566Z,-2.52
2018-02-14T06:08:37.993Z,-2.73
2018-02-14T06:11:06.413Z,-2.75
2018-02-14T06:13:34.812Z,-2.79
2018-02-14T06:16:04.120Z,-2.70
2018-02-14T06:18:33.297Z,-2.69
2018-02-14T06:21:01.880Z,-2.77
2018-02-14T06:23:30.283Z,-2.72
2018-02-14T06:25:59.484Z,-2.65
2018-02-14T06:28:28.665Z,-2.68
2018-02-14T06:30:57.067Z,-2.52
2018-02-14T06:33:25.506Z,-2.57
2018-02-14T06:35:53.938Z,-2.55
2018-02-14T06:38:22.433Z,-2.48
2018-02-14T06:40:51.017Z,-2.39
2018-02-14T06:43:19.452Z,-2.36
2018-02-14T06:45:47.829Z,-2.34
2018-02-14T06:48:16.244Z,-2.33
2018-02-14T06:50:44.722Z,-2.28
2018-02-14T06:53:13.366Z,-2.29
2018-02-14T06:55:42.539Z,-2.27
2018-02-14T06:58:10.929Z,-2.28
2018-02-14T07:00:39.363Z,-2.31
2018-02-14T07:03:07.795Z,-2.25
2018-02-14T07:05:36.376Z,-2.30
2018-02-14T07:08:04.758Z,-2.34
2018-02-14T07:10:33.183Z,-2.30
2018-02-14T07:13:02.357Z,-2.31
2018-02-14T07:15:30.763Z,-2.35
2018-02-14T07:18:00.110Z,-2.37
2018-02-14T07:20:28.575Z,-2.38
2018-02-14T07:22:56.998Z,-2.49
2018-02-14T07:25:25.403Z,-2.47
2018-02-14T07:27:54.577Z,-2.29
2018-02-14T07:30:22.982Z,-2.12
2018-02-14T07:32:51.416Z,-2.04
2018-02-14T07:35:19.801Z,-1.98
2018-02-14T07:37:48.203Z,-1.94
2018-02-14T07:40:16.635Z,-1.86
2018-02-14T07:42:45.031Z,-1.72
2018-02-14T07:45:13.427Z,-1.70
2018-02-14T07:47:41.824Z,-1.63
2018-02-14T07:50:10.989Z,-1.56
2018-02-14T07:52:39.393Z,-1.63
2018-02-14T07:55:07.783Z,-1.66
2018-02-14T07:57:36.968Z,-1.59
2018-02-14T08:00:05.361Z,-1.50
2018-02-14T08:02:33.773Z,-1.50
2018-02-14T08:05:02.163Z,-1.51
2018-02-14T08:07:30.644Z,-1.37
2018-02-14T08:09:59.064Z,-1.27
2018-02-14T08:12:27.494Z,-1.16
2018-02-14T08:14:55.912Z,-1.15
2018-02-14T08:17:24.333Z,-0.98
2018-02-14T08:19:52.771Z,-0.94
2018-02-14T08:22:21.170Z,-0.92
2018-02-14T08:24:50.519Z,-0.83
2018-02-14T08:27:18.920Z,-0.72
2018-02-14T08:29:47.347Z,-0.70
2018-02-14T08:32:16.556Z,-0.63
2018-02-14T08:34:44.967Z,-0.64
2018-02-14T08:37:13.391Z,-0.55
2018-02-14T08:39:41.829Z,-0.50
2018-02-14T08:42:10.220Z,-0.34
2018-02-14T08:44:38.627Z,-0.25
2018-02-14T08:47:07.049Z,-0.19
2018-02-14T08:49:35.456Z,-0.05
2018-02-14T08:52:03.866Z,-0.07
2018-02-14T08:54:32.298Z,0.12
2018-02-14T08:57:00.785Z,0.23
2018-02-14T08:59:29.213Z,0.32
2018-02-14T09:01:57.673Z,0.38
2018-02-14T09:04:26.092Z,0.45
2018-02-14T09:06:55.292Z,0.57
2018-02-14T09:09:24.471Z,0.77
2018-02-14T09:11:52.875Z,0.82
2018-02-14T09:14:22.313Z,1.18
2018-02-14T09:16:50.790Z,1.28
2018-02-14T09:19:19.178Z,1.68
2018-02-14T09:21:47.652Z,1.96
2018-02-14T09:24:16.255Z,2.20
2018-02-14T09:26:44.691Z,2.82
2018-02-14T09:29:13.087Z,3.06
2018-02-14T09:31:41.491Z,3.85
2018-02-14T09:34:09.872Z,4.31
2018-02-14T09:36:38.324Z,4.94
2018-02-14T09:39:06.746Z,4.58
2018-02-14T09:41:35.271Z,5.31
2018-02-14T09:44:04.423Z,5.14
2018-02-14T09:46:32.828Z,5.34
2018-02-14T09:49:01.217Z,5.87
2018-02-14T09:51:30.436Z,6.72
2018-02-14T09:53:59.669Z,7.52
2018-02-14T09:56:28.081Z,7.31
2018-02-14T09:58:56.496Z,7.09
2018-02-14T10:01:25.665Z,7.35
2018-02-14T10:03:54.084Z,7.44
2018-02-14T10:06:22.500Z,7.23
2018-02-14T10:08:50.883Z,6.89
2018-02-14T10:11:19.274Z,7.35
2018-02-14T10:13:48.190Z,7.70
2018-02-14T10:16:16.588Z,7.87
2018-02-14T10:18:45.756Z,8.18
2018-02-14T10:21:15.459Z,8.37
2018-02-14T10:23:43.852Z,8.26
2018-02-14T10:26:12.281Z,6.81
2018-02-14T10:28:40.690Z,7.57
2018-02-14T10:31:09.179Z,7.44
2018-02-14T10:33:37.576Z,6.66
2018-02-14T10:36:06.023Z,6.50
2018-02-14T10:38:34.501Z,7.51
2018-02-14T10:41:02.987Z,6.80
2018-02-14T10:43:31.403Z,7.14
2018-02-14T10:45:59.819Z,7.02
2018-02-14T10:48:28.993Z,6.65
2018-02-14T10:50:57.378Z,7.30
2018-02-14T10:53:25.955Z,6.27
2018-02-14T10:55:54.333Z,6.08
2018-02-14T10:58:22.986Z,6.31
2018-02-14T11:00:56.727Z,6.88
2018-02-14T11:03:30.687Z,7.29
2018-02-14T11:06:04.406Z,6.92
2018-02-14T11:08:33.130Z,6.98
2018-02-14T11:11:01.528Z,6.20
2018-02-14T11:13:30.696Z,6.89
2018-02-14T11:15:59.114Z,6.60
2018-02-14T11:18:28.264Z,6.95
2018-02-14T11:20:56.721Z,6.64
2018-02-14T11:23:25.118Z,6.40
2018-02-14T11:25:53.503Z,6.13
2018-02-14T11:28:21.914Z,6.44
2018-02-14T11:30:50.325Z,6.37
2018-02-14T11:33:19.563Z,6.47
2018-02-14T11:35:47.962Z,6.61
2018-02-14T11:38:16.540Z,6.31
2018-02-14T11:40:44.991Z,6.34
2018-02-14T11:43:13.400Z,6.79
2018-02-14T11:45:41.823Z,6.53
2018-02-14T11:48:10.226Z,6.31
2018-02-14T11:50:39.382Z,6.05
2018-02-14T11:53:07.775Z,6.44
2018-02-14T11:55:36.182Z,6.66
2018-02-14T11:58:05.327Z,6.39
2018-02-14T12:00:33.713Z,6.46
2018-02-14T12:03:02.145Z,6.69
2018-02-14T12:05:31.380Z,6.41
2018-02-14T12:07:59.763Z,6.28
2018-02-14T12:10:28.167Z,6.54
2018-02-14T12:12:56.562Z,6.46
2018-02-14T12:15:24.962Z,6.36
2018-02-14T12:17:54.097Z,6.15
2018-02-14T12:20:22.475Z,6.46
2018-02-14T12:22:50.896Z,6.15
2018-02-14T12:25:19.317Z,6.28
2018-02-14T12:27:47.822Z,5.76
2018-02-14T12:30:16.228Z,6.20
2018-02-14T12:32:44.613Z,6.27
2018-02-14T12:35:13.164Z,6.43
2018-02-14T12:37:41.561Z,6.68
2018-02-14T12:40:09.961Z,6.74
2018-02-14T12:42:38.846Z,6.57
2018-02-14T12:45:07.781Z,6.39
2018-02-14T12:47:36.157Z,6.47
2018-02-14T12:50:04.571Z,6.24
2018-02-14T12:52:33.763Z,6.23
2018-02-14T12:55:02.911Z,6.23
2018-02-14T12:57:31.318Z,6.12
2018-02-14T12:59:59.724Z,6.24
2018-02-14T13:02:28.863Z,6.17
2018-02-14T13:04:57.259Z,6.11
2018-02-14T13:07:25.622Z,6.16
2018-02-14T13:09:54.006Z,6.22
2018-02-14T13:12:22.408Z,6.24
2018-02-14T13:14:50.882Z,6.32
2018-02-14T13:17:19.312Z,6.50
2018-02-14T13:19:48.520Z,6.55
2018-02-14T13:22:16.923Z,6.45
2018-02-14T13:24:45.336Z,6.39
2018-02-14T13:27:13.729Z,6.51
2018-02-14T13:29:42.130Z,6.49
2018-02-14T13:32:11.326Z,6.71
2018-02-14T13:34:40.492Z,6.55
2018-02-14T13:37:09.713Z,6.85
2018-02-14T13:39:38.855Z,6.89
2018-02-14T13:42:07.281Z,6.96
2018-02-14T13:44:35.655Z,6.80
2018-02-14T13:47:04.074Z,6.89
2018-02-14T13:49:32.521Z,6.98
2018-02-14T13:52:01.735Z,7.23
2018-02-14T13:54:30.294Z,7.07
2018-02-14T13:56:58.855Z,7.29
2018-02-14T13:59:27.243Z,7.38
2018-02-14T14:01:55.681Z,7.44
2018-02-14T14:04:25.187Z,7.44
2018-02-14T14:06:53.651Z,7.53
2018-02-14T14:09:22.217Z,7.55
2018-02-14T14:11:50.675Z,7.32
2018-02-14T14:14:19.056Z,7.23
2018-02-14T14:16:47.463Z,7.38
2018-02-14T14:19:15.872Z,7.07
2018-02-14T14:21:44.314Z,7.23
2018-02-14T14:24:12.744Z,7.11
2018-02-14T14:26:41.127Z,6.86
2018-02-14T14:29:09.540Z,7.07
2018-02-14T14:31:38.168Z,7.13
2018-02-14T14:34:07.400Z,7.14
2018-02-14T14:36:35.810Z,7.31
2018-02-14T14:39:04.363Z,7.12
2018-02-14T14:41:32.756Z,6.84
2018-02-14T14:44:01.132Z,6.91
2018-02-14T14:46:29.563Z,6.89
2018-02-14T14:48:58.164Z,6.79
2018-02-14T14:51:27.472Z,6.77
2018-02-14T14:53:56.658Z,6.72
2018-02-14T14:56:25.110Z,6.63
2018-02-14T14:58:53.543Z,6.58
2018-02-14T15:01:22.792Z,6.59
2018-02-14T15:03:51.199Z,6.48
2018-02-14T15:06:19.742Z,6.38
2018-02-14T15:08:48.155Z,6.43
2018-02-14T15:11:16.557Z,6.38
2018-02-14T15:13:44.954Z,6.08
2018-02-14T15:16:14.148Z,6.16
2018-02-14T15:18:43.386Z,6.06
2018-02-14T15:21:11.784Z,5.89
2018-02-14T15:23:40.154Z,5.79
2018-02-14T15:26:08.788Z,5.94
2018-02-14T15:28:37.959Z,5.98
2018-02-14T15:31:06.342Z,5.88
2018-02-14T15:33:34.771Z,5.80
2018-02-14T15:36:03.211Z,5.85
2018-02-14T15:38:31.604Z,5.68
2018-02-14T15:41:02.839Z,5.63
2018-02-14T15:43:31.230Z,5.58
2018-02-14T15:45:59.638Z,5.63
2018-02-14T15:48:28.040Z,5.50
2018-02-14T15:50:56.476Z,5.36
2018-02-14T15:53:27.466Z,5.27
2018-02-14T15:55:55.994Z,5.09
2018-02-14T15:58:24.403Z,5.02
2018-02-14T16:00:54.121Z,4.94
2018-02-14T16:03:23.264Z,4.94
2018-02-14T16:05:52.015Z,4.82
2018-02-14T16:08:20.398Z,4.84
2018-02-14T16:10:48.807Z,4.79
2018-02-14T16:13:17.193Z,4.70
2018-02-14T16:15:45.576Z,4.70
2018-02-14T16:18:13.983Z,4.67
2018-02-14T16:20:42.415Z,4.63
2018-02-14T16:23:10.923Z,4.53
2018-02-14T16:25:39.612Z,4.37
2018-02-14T16:28:08.078Z,4.31
2018-02-14T16:30:36.470Z,4.30
2018-02-14T16:33:04.856Z,4.11
2018-02-14T16:35:33.284Z,4.07
2018-02-14T16:38:01.895Z,4.04
2018-02-14T16:40:30.605Z,4.05
2018-02-14T16:42:59.043Z,3.99
2018-02-14T16:45:27.442Z,3.91
2018-02-14T16:47:55.874Z,3.88
2018-02-14T16:50:24.260Z,3.89
2018-02-14T16:52:52.829Z,3.83
2018-02-14T16:55:21.274Z,3.76
2018-02-14T16:57:49.710Z,3.66
2018-02-14T17:00:18.847Z,3.71
2018-02-14T17:02:47.223Z,3.61
2018-02-14T17:05:15.614Z,3.62
2018-02-14T17:07:44.839Z,3.51
2018-02-14T17:10:13.242Z,3.55
2018-02-14T17:12:41.626Z,3.44
2018-02-14T17:15:10.045Z,3.38
2018-02-14T17:17:39.392Z,3.37
2018-02-14T17:20:07.818Z,3.34
2018-02-14T17:22:36.227Z,3.34
2018-02-14T17:25:05.371Z,3.37
2018-02-14T17:27:33.750Z,3.34
2018-02-14T17:30:02.149Z,3.29
2018-02-14T17:32:30.731Z,3.23
2018-02-14T17:34:59.134Z,3.25
2018-02-14T17:37:28.798Z,3.17
2018-02-14T17:39:57.204Z,3.09
2018-02-14T17:42:26.478Z,3.10
2018-02-14T17:44:55.018Z,3.12
2018-02-14T17:47:24.163Z,3.13
2018-02-14T17:49:52.599Z,3.23
2018-02-14T17:52:21.779Z,3.18
2018-02-14T17:54:50.279Z,3.15
2018-02-14T17:57:18.699Z,3.12
2018-02-14T17:59:47.205Z,3.17
2018-02-14T18:02:15.584Z,3.15
2018-02-14T18:04:43.978Z,3.13
2018-02-14T18:07:12.573Z,3.07
2018-02-14T18:09:40.971Z,2.94
2018-02-14T18:12:10.134Z,2.90
2018-02-14T18:14:38.643Z,2.92
2018-02-14T18:17:07.301Z,2.94
2018-02-14T18:19:35.770Z,2.86
2018-02-14T18:22:04.303Z,2.85
2018-02-14T18:24:33.489Z,2.84
2018-02-14T18:27:02.071Z,2.81
2018-02-14T18:29:30.444Z,2.77
2018-02-14T18:31:58.849Z,2.71
2018-02-14T18:34:28.036Z,2.66
2018-02-14T18:36:56.583Z,2.59
2018-02-14T18:39:25.074Z,2.58
2018-02-14T18:41:53.506Z,2.54
2018-02-14T18:44:22.681Z,2.49
2018-02-14T18:46:51.120Z,2.56
2018-02-14T18:49:19.511Z,2.51
2018-02-14T18:51:48.233Z,2.50
2018-02-14T18:54:16.729Z,2.49
2018-02-14T18:56:45.112Z,2.44
2018-02-14T18:59:14.285Z,2.36
2018-02-14T19:01:42.713Z,2.35
2018-02-14T19:04:11.127Z,2.44
2018-02-14T19:06:39.530Z,2.47
2018-02-14T19:09:08.735Z,2.46
2018-02-14T19:11:37.159Z,2.49
2018-02-14T19:14:05.544Z,2.48
2018-02-14T19:16:33.934Z,2.52
2018-02-14T19:19:02.330Z,2.58
2018-02-14T19:21:30.767Z,2.60
2018-02-14T19:23:59.926Z,2.64
2018-02-14T19:26:28.497Z,2.62
2018-02-14T19:28:56.943Z,2.61
2018-02-14T19:31:25.352Z,2.64
2018-02-14T19:33:53.797Z,2.66
2018-02-14T19:36:22.957Z,2.68
2018-02-14T19:38:51.380Z,2.75
2018-02-14T19:41:20.607Z,2.74
2018-02-14T19:43:49.058Z,2.69
2018-02-14T19:46:18.262Z,2.62
2018-02-14T19:48:47.428Z,2.70
2018-02-14T19:51:15.851Z,2.62
2018-02-14T19:53:44.249Z,2.70
2018-02-14T19:56:12.833Z,2.67
2018-02-14T19:58:41.253Z,2.67
2018-02-14T20:01:09.690Z,2.70
2018-02-14T20:03:38.095Z,2.68
2018-02-14T20:06:06.570Z,2.64
2018-02-14T20:08:35.257Z,2.61
2018-02-14T20:11:03.849Z,2.54
2018-02-14T20:13:32.285Z,2.48
2018-02-14T20:16:01.536Z,2.45
2018-02-14T20:18:30.374Z,2.42
2018-02-14T20:20:59.061Z,2.41
2018-02-14T20:23:27.658Z,2.27
2018-02-14T20:25:56.078Z,2.30
2018-02-14T20:28:24.518Z,2.31
2018-02-14T20:30:52.997Z,2.27
2018-02-14T20:33:21.470Z,2.26
2018-02-14T20:35:50.659Z,2.22
2018-02-14T20:38:19.168Z,2.17
2018-02-14T20:40:47.758Z,2.31
2018-02-14T20:43:16.614Z,2.25
2018-02-14T20:45:45.915Z,2.19
2018-02-14T20:48:14.830Z,2.23
2018-02-14T20:50:43.494Z,2.27
2018-02-14T20:53:11.924Z,2.29
2018-02-14T20:55:41.214Z,2.34
2018-02-14T20:58:09.642Z,2.35
2018-02-14T21:00:38.485Z,2.38
2018-02-14T21:03:06.899Z,2.43
2018-02-14T21:05:35.314Z,2.49
2018-02-14T21:08:03.804Z,2.52
2018-02-14T21:10:32.571Z,2.54
2018-02-14T21:13:01.189Z,2.56
2018-02-14T21:15:30.361Z,2.58
2018-02-14T21:17:58.818Z,2.64
2018-02-14T21:20:27.416Z,2.59
2018-02-14T21:22:55.795Z,2.54
2018-02-14T21:25:24.215Z,2.56
2018-02-14T21:27:53.382Z,2.49
2018-02-14T21:30:21.822Z,2.53
2018-02-14T21:32:50.323Z,2.49
2018-02-14T21:35:19.532Z,2.52
2018-02-14T21:37:47.959Z,2.47
2018-02-14T21:40:17.195Z,2.47
2018-02-14T21:42:45.611Z,2.43
2018-02-14T21:45:14.023Z,2.39
2018-02-14T21:47:43.208Z,2.45
2018-02-14T21:50:12.448Z,2.41
2018-02-14T21:52:40.803Z,2.42
2018-02-14T21:55:09.240Z,2.42
2018-02-14T21:57:37.713Z,2.43
2018-02-14T22:00:06.128Z,2.50
2018-02-14T22:02:34.729Z,2.50
2018-02-14T22:05:03.882Z,2.51
2018-02-14T22:07:32.280Z,2.55
2018-02-14T22:10:00.688Z,2.48
2018-02-14T22:12:29.860Z,2.46
2018-02-14T22:14:58.273Z,2.50
2018-02-14T22:17:27.443Z,2.48
2018-02-14T22:19:55.830Z,2.51
2018-02-14T22:22:24.247Z,2.53
2018-02-14T22:24:52.636Z,2.50
2018-02-14T22:27:21.051Z,2.50
2018-02-14T22:29:50.399Z,2.45
2018-02-14T22:32:19.618Z,2.50
2018-02-14T22:34:48.029Z,2.49
2018-02-14T22:37:16.403Z,2.51
2018-02-14T22:39:44.844Z,2.47
2018-02-14T22:42:13.252Z,2.54
2018-02-14T22:44:41.672Z,2.50
2018-02-14T22:47:11.725Z,2.47
2018-02-14T22:49:40.133Z,2.51
2018-02-14T22:52:08.789Z,2.52
2018-02-14T22:54:37.972Z,2.50
2018-02-14T22:57:07.332Z,2.54
2018-02-14T22:59:35.742Z,2.56
2018-02-14T23:02:04.916Z,2.58
2018-02-14T23:04:33.351Z,2.58
2018-02-14T23:07:01.754Z,2.63
2018-02-14T23:09:30.159Z,2.65
2018-02-14T23:11:58.731Z,2.63
2018-02-14T23:14:27.147Z,2.68
2018-02-14T23:16:55.541Z,2.73
2018-02-14T23:19:23.922Z,2.68
2018-02-14T23:21:52.287Z,2.71
2018-02-14T23:24:20.659Z,2.70
2018-02-14T23:26:49.811Z,2.75
2018-02-14T23:29:18.265Z,2.78
2018-02-14T23:31:46.677Z,2.75
2018-02-14T23:34:16.186Z,2.71
2018-02-14T23:36:44.595Z,2.74
2018-02-14T23:39:13.774Z,2.69
2018-02-14T23:41:42.162Z,2.74
2018-02-14T23:44:10.926Z,2.71
2018-02-14T23:46:39.350Z,2.71
2018-02-14T23:49:08.515Z,2.74
2018-02-14T23:51:36.992Z,2.71
2018-02-14T23:54:05.395Z,2.74
2018-02-14T23:56:33.766Z,2.76
2018-02-14T23:59:03.126Z,2.71
